Ride Results

Murrumba (10-08-2019)
Ride distance: 83.0 km

Outcomes - Murrumba (10-08-2019)
Division No. of Entries Retired / DNE Completed Withdrawn Ineligible V/O Percentage Completed
HW 3 - 3 - - - 100.00%
MW 12 - 11 - - 1 91.67%
LW 11 - 8 1 - 2 72.73%
JN 3 - 3 - - - 100.00%
Totals 29 - 25 1 - 3 86.21%
Results - Murrumba (10-08-2019)
No. Rider Horse Place Time Leg Speeds Total
Km/Hr
H/R bpm
Heavyweight
258 Mark Nimon Abbeywood Le'Tigre 1 5:11:00 16.1, 15.8 16.01 32, 45, 46 (Avg:45)
274 Steve Swan Longrun Nelson 2 7:09:00 12.6, 10.5 11.61 33, 45, 50 (Avg:47)
269 Peter Field Rkayn Xuberant 3 7:13:00 13.1, 9.9 11.50 35, 40, 44 (Avg:42)
Middleweight
262 Virginia Barber Warregal 1 4:55:00 17.3, 16.4 16.88 35, 48, 49 (Avg:48)
257 Graysen Clarke Gray-Gun Vanharlen 2 5:13:00 16.1, 15.6 15.91 31, 41, 44 (Avg:42)
275 Yvonne Hain Ransome Liberty Belle 3 6:24:00 13.7, 12.1 12.97 32, 37, 39 (Avg:38)
256 Stephen Gray Sienna Confettii 4 6:39:00 12.3, 12.6 12.48 34, 45, 52 (Avg:48)
263 Fiona Fenech Greywood Karson 5 6:58:00 12.4, 11.3 11.91 32, 39, 45 (Avg:42)
264 Sherry Lowe Rosevale Park Bay Sarin 5 6:58:00 12.4, 11.3 11.91 31, 41, 45 (Avg:43)
277 Saasha Grogan Halo Rhapsody In Blue 7 7:14:00 12.9, 10.1 11.47 36, 39, 48 (Avg:43)
278 Mark Grogan S'Shaada Taesha 7 7:14:00 12.9, 10.1 11.47 37, 48, 52 (Avg:50)
272 Vicky Hazzard Lavendar Park Bacardi 9 7:30:00 12.2, 9.9 11.07 36, 43, 57 (Avg:50)
276 Keiran Rowley Rhythm Dancer 9 7:30:00 12.6, 9.6 11.07 30, 36, 44 (Avg:40)
255 Kaylyn Free Blue Beatson 11 7:39:00 12.2, 9.5 10.85 34, 46, 54 (Avg:50)
253 Wendy Butler Arionn Lame L1 0:00:00 12.3 - 30, 37 (Avg:37)
Lightweight
260 Essy Mountford Abbeywood Zsarina 1 5:11:00 16.1, 15.8 16.01 34, 44, 47 (Avg:45)
266 Shelley Chapman Cameo Felspar 2 5:13:00 16.1, 15.6 15.91 38, 46, 51 (Avg:48)
259 Sue Sutcliffe Ra-Anji Firefly 2 5:13:00 16.1, 15.6 15.91 31, 49, 48 (Avg:48)
265 Maeve Paten Box Hill Nitro 4 6:20:00 13.7, 12.4 13.11 32, 41, 33 (Avg:37)
252 Victoria Holme Samadhi 5 6:24:00 13.7, 12.1 12.97 31, 36, 53 (Avg:44)
261 Amanda Powell Zenith Park Qadir 6 6:35:00 13.5, 11.6 12.61 31, 45, 47 (Avg:46)
270 Mary Sims Mt Eerwah Silver Duet 7 6:37:00 14.3, 10.9 12.54 36, 43, 46 (Avg:44)
271 Julie Mohi Bacchante Dakota 8 7:09:00 12.6, 10.5 11.61 36, 45, 50 (Avg:47)
268 Corrine Rees Sonato Metabolics severe L2 0:00:00 13.5, 10.7 - 37, 46, 45 (Avg:45)
267 Jan Tyrrell Steel Poppy Zen Lame L2 0:00:00 13.5, 10.7 - 31, 41, 38 (Avg:39)
254 Jenny Thompson Miva Philamina W/D on track L1 0:00:00 - - 41, 48 (Avg:48)
Junior
273 Molly Choyce Abberlyn Park Astanna 1 6:37:00 12.4, 12.6 12.54 28, 41, 49 (Avg:45)
279 Noah Hoogland Steel Poppy Hot Chocolate 1 6:37:00 12.6, 12.4 12.54 34, 45, 51 (Avg:48)
251 Lillee Parkinson Hillbrae Phoenix 3 7:55:00 11.1, 9.8 10.48 36, 52, 60 (Avg:56)